sensor_id;sensor_type;location;lat;lon;timestamp;P1;durP1;ratioP1;P2;durP2;ratioP2
2760;SDS011;15420;48.636;9.798;2022-07-10T00:01:48;4.10;;;3.77;;
2760;SDS011;15420;48.636;9.798;2022-07-10T00:04:14;5.60;;;3.83;;
2760;SDS011;15420;48.636;9.798;2022-07-10T00:06:40;4.27;;;3.97;;
2760;SDS011;15420;48.636;9.798;2022-07-10T00:09:11;5.47;;;3.80;;
2760;SDS011;15420;48.636;9.798;2022-07-10T00:11:40;5.03;;;4.63;;
2760;SDS011;15420;48.636;9.798;2022-07-10T00:14:09;4.70;;;4.03;;
2760;SDS011;15420;48.636;9.798;2022-07-10T00:16:35;5.67;;;5.10;;
2760;SDS011;15420;48.636;9.798;2022-07-10T00:19:04;4.67;;;4.27;;
2760;SDS011;15420;48.636;9.798;2022-07-10T00:21:32;4.23;;;3.93;;
2760;SDS011;15420;48.636;9.798;2022-07-10T00:23:58;3.73;;;3.43;;
2760;SDS011;15420;48.636;9.798;2022-07-10T00:26:25;4.93;;;3.80;;
2760;SDS011;15420;48.636;9.798;2022-07-10T00:28:53;3.97;;;3.57;;
2760;SDS011;15420;48.636;9.798;2022-07-10T00:31:20;4.60;;;4.20;;
2760;SDS011;15420;48.636;9.798;2022-07-10T00:33:48;4.73;;;4.13;;
2760;SDS011;15420;48.636;9.798;2022-07-10T00:36:16;4.57;;;4.10;;
2760;SDS011;15420;48.636;9.798;2022-07-10T00:38:42;5.27;;;4.47;;
2760;SDS011;15420;48.636;9.798;2022-07-10T00:41:10;4.47;;;4.07;;
2760;SDS011;15420;48.636;9.798;2022-07-10T00:46:37;4.80;;;3.87;;
2760;SDS011;15420;48.636;9.798;2022-07-10T00:49:05;9.03;;;5.40;;
2760;SDS011;15420;48.636;9.798;2022-07-10T00:51:34;4.60;;;4.20;;
2760;SDS011;15420;48.636;9.798;2022-07-10T00:54:06;4.40;;;4.00;;
2760;SDS011;15420;48.636;9.798;2022-07-10T00:56:32;4.10;;;3.80;;
2760;SDS011;15420;48.636;9.798;2022-07-10T00:58:58;4.73;;;4.33;;
2760;SDS011;15420;48.636;9.798;2022-07-10T01:01:25;4.77;;;4.37;;
2760;SDS011;15420;48.636;9.798;2022-07-10T01:03:53;4.00;;;3.70;;
2760;SDS011;15420;48.636;9.798;2022-07-10T01:06:24;4.43;;;4.10;;
2760;SDS011;15420;48.636;9.798;2022-07-10T01:08:52;3.90;;;3.40;;
2760;SDS011;15420;48.636;9.798;2022-07-10T01:11:19;4.47;;;4.07;;
2760;SDS011;15420;48.636;9.798;2022-07-10T01:13:48;4.83;;;4.43;;
2760;SDS011;15420;48.636;9.798;2022-07-10T01:16:15;4.17;;;3.87;;
2760;SDS011;15420;48.636;9.798;2022-07-10T01:18:44;4.20;;;3.80;;
2760;SDS011;15420;48.636;9.798;2022-07-10T01:21:25;4.60;;;4.20;;
2760;SDS011;15420;48.636;9.798;2022-07-10T01:24:06;4.67;;;4.27;;
2760;SDS011;15420;48.636;9.798;2022-07-10T01:26:34;4.83;;;4.00;;
2760;SDS011;15420;48.636;9.798;2022-07-10T01:29:07;4.00;;;3.70;;
2760;SDS011;15420;48.636;9.798;2022-07-10T01:31:38;6.10;;;4.43;;
2760;SDS011;15420;48.636;9.798;2022-07-10T01:34:04;4.80;;;4.40;;
2760;SDS011;15420;48.636;9.798;2022-07-10T01:36:39;4.83;;;4.27;;
2760;SDS011;15420;48.636;9.798;2022-07-10T01:39:06;4.37;;;4.00;;
2760;SDS011;15420;48.636;9.798;2022-07-10T01:41:35;4.70;;;4.30;;
2760;SDS011;15420;48.636;9.798;2022-07-10T01:44:01;5.17;;;4.73;;
2760;SDS011;15420;48.636;9.798;2022-07-10T01:46:28;4.37;;;3.97;;
2760;SDS011;15420;48.636;9.798;2022-07-10T01:48:54;5.00;;;4.60;;
2760;SDS011;15420;48.636;9.798;2022-07-10T01:51:20;5.73;;;5.13;;
2760;SDS011;15420;48.636;9.798;2022-07-10T01:53:47;5.50;;;5.00;;
2760;SDS011;15420;48.636;9.798;2022-07-10T01:56:13;4.53;;;4.23;;
2760;SDS011;15420;48.636;9.798;2022-07-10T01:58:40;5.20;;;4.70;;
2760;SDS011;15420;48.636;9.798;2022-07-10T02:01:09;5.13;;;4.63;;
2760;SDS011;15420;48.636;9.798;2022-07-10T02:03:36;5.10;;;4.60;;
2760;SDS011;15420;48.636;9.798;2022-07-10T02:06:23;5.20;;;4.80;;
2760;SDS011;15420;48.636;9.798;2022-07-10T02:08:49;5.63;;;5.13;;
2760;SDS011;15420;48.636;9.798;2022-07-10T02:11:15;5.43;;;4.93;;
2760;SDS011;15420;48.636;9.798;2022-07-10T02:13:42;5.10;;;4.70;;
2760;SDS011;15420;48.636;9.798;2022-07-10T02:16:10;5.20;;;4.70;;
2760;SDS011;15420;48.636;9.798;2022-07-10T02:18:36;5.80;;;5.30;;
2760;SDS011;15420;48.636;9.798;2022-07-10T02:21:04;5.77;;;5.27;;
2760;SDS011;15420;48.636;9.798;2022-07-10T02:23:30;5.77;;;5.27;;
2760;SDS011;15420;48.636;9.798;2022-07-10T02:25:57;6.50;;;5.40;;
2760;SDS011;15420;48.636;9.798;2022-07-10T02:28:25;6.30;;;5.40;;
2760;SDS011;15420;48.636;9.798;2022-07-10T02:30:51;5.97;;;5.33;;
2760;SDS011;15420;48.636;9.798;2022-07-10T02:33:18;5.77;;;5.27;;
2760;SDS011;15420;48.636;9.798;2022-07-10T02:35:45;6.03;;;5.37;;
2760;SDS011;15420;48.636;9.798;2022-07-10T02:38:11;6.77;;;6.07;;
2760;SDS011;15420;48.636;9.798;2022-07-10T02:40:39;6.50;;;5.37;;
2760;SDS011;15420;48.636;9.798;2022-07-10T02:43:06;5.23;;;4.73;;
2760;SDS011;15420;48.636;9.798;2022-07-10T02:45:34;6.20;;;5.70;;
2760;SDS011;15420;48.636;9.798;2022-07-10T02:48:00;5.67;;;5.10;;
2760;SDS011;15420;48.636;9.798;2022-07-10T02:50:26;6.90;;;6.20;;
2760;SDS011;15420;48.636;9.798;2022-07-10T02:52:55;6.80;;;5.10;;
2760;SDS011;15420;48.636;9.798;2022-07-10T02:55:21;5.90;;;5.40;;
2760;SDS011;15420;48.636;9.798;2022-07-10T02:57:47;7.60;;;5.07;;
2760;SDS011;15420;48.636;9.798;2022-07-10T03:00:13;5.73;;;5.23;;
2760;SDS011;15420;48.636;9.798;2022-07-10T03:02:39;7.43;;;5.07;;
2760;SDS011;15420;48.636;9.798;2022-07-10T03:05:08;7.03;;;6.40;;
2760;SDS011;15420;48.636;9.798;2022-07-10T03:07:35;6.37;;;5.77;;
2760;SDS011;15420;48.636;9.798;2022-07-10T03:10:03;5.50;;;4.77;;
2760;SDS011;15420;48.636;9.798;2022-07-10T03:12:30;5.83;;;5.30;;
2760;SDS011;15420;48.636;9.798;2022-07-10T03:15:01;5.70;;;5.10;;
2760;SDS011;15420;48.636;9.798;2022-07-10T03:17:29;5.27;;;4.87;;
2760;SDS011;15420;48.636;9.798;2022-07-10T03:19:59;5.30;;;4.80;;
2760;SDS011;15420;48.636;9.798;2022-07-10T03:22:25;5.70;;;5.20;;
2760;SDS011;15420;48.636;9.798;2022-07-10T03:24:53;5.70;;;5.07;;
2760;SDS011;15420;48.636;9.798;2022-07-10T03:27:19;6.30;;;4.73;;
2760;SDS011;15420;48.636;9.798;2022-07-10T03:29:45;6.63;;;5.23;;
2760;SDS011;15420;48.636;9.798;2022-07-10T03:32:16;6.37;;;5.77;;
2760;SDS011;15420;48.636;9.798;2022-07-10T03:34:45;6.30;;;5.70;;
2760;SDS011;15420;48.636;9.798;2022-07-10T03:37:13;5.43;;;4.93;;
2760;SDS011;15420;48.636;9.798;2022-07-10T03:39:39;6.50;;;5.83;;
2760;SDS011;15420;48.636;9.798;2022-07-10T03:42:06;5.40;;;4.90;;
2760;SDS011;15420;48.636;9.798;2022-07-10T03:44:37;6.20;;;5.60;;
2760;SDS011;15420;48.636;9.798;2022-07-10T03:47:05;5.70;;;5.20;;
2760;SDS011;15420;48.636;9.798;2022-07-10T03:49:31;6.20;;;5.60;;
2760;SDS011;15420;48.636;9.798;2022-07-10T03:52:01;5.97;;;5.00;;
2760;SDS011;15420;48.636;9.798;2022-07-10T03:54:28;5.50;;;5.00;;
2760;SDS011;15420;48.636;9.798;2022-07-10T03:56:57;4.97;;;4.57;;
2760;SDS011;15420;48.636;9.798;2022-07-10T03:59:42;5.13;;;4.57;;
2760;SDS011;15420;48.636;9.798;2022-07-10T04:02:08;5.07;;;4.67;;
2760;SDS011;15420;48.636;9.798;2022-07-10T04:04:35;4.97;;;4.47;;
2760;SDS011;15420;48.636;9.798;2022-07-10T04:07:01;4.73;;;4.27;;
2760;SDS011;15420;48.636;9.798;2022-07-10T04:09:29;5.27;;;4.80;;
2760;SDS011;15420;48.636;9.798;2022-07-10T04:11:55;4.77;;;4.37;;
2760;SDS011;15420;48.636;9.798;2022-07-10T04:14:21;5.33;;;4.83;;
2760;SDS011;15420;48.636;9.798;2022-07-10T04:16:50;4.87;;;4.37;;
2760;SDS011;15420;48.636;9.798;2022-07-10T04:19:18;5.23;;;3.90;;
2760;SDS011;15420;48.636;9.798;2022-07-10T04:21:46;5.00;;;4.60;;
2760;SDS011;15420;48.636;9.798;2022-07-10T04:24:12;4.63;;;4.23;;
2760;SDS011;15420;48.636;9.798;2022-07-10T04:26:38;5.90;;;4.10;;
2760;SDS011;15420;48.636;9.798;2022-07-10T04:29:07;5.23;;;4.77;;
2760;SDS011;15420;48.636;9.798;2022-07-10T04:31:33;6.70;;;4.60;;
2760;SDS011;15420;48.636;9.798;2022-07-10T04:33:59;7.60;;;5.00;;
2760;SDS011;15420;48.636;9.798;2022-07-10T04:36:28;4.50;;;4.10;;
2760;SDS011;15420;48.636;9.798;2022-07-10T04:38:56;4.20;;;3.83;;
2760;SDS011;15420;48.636;9.798;2022-07-10T04:41:22;5.00;;;4.60;;
2760;SDS011;15420;48.636;9.798;2022-07-10T04:43:48;4.53;;;4.13;;
2760;SDS011;15420;48.636;9.798;2022-07-10T04:46:14;4.70;;;3.90;;
2760;SDS011;15420;48.636;9.798;2022-07-10T04:48:43;4.83;;;3.80;;
2760;SDS011;15420;48.636;9.798;2022-07-10T04:51:09;4.40;;;4.00;;
2760;SDS011;15420;48.636;9.798;2022-07-10T04:53:38;5.07;;;4.60;;
2760;SDS011;15420;48.636;9.798;2022-07-10T04:56:04;3.93;;;3.63;;
2760;SDS011;15420;48.636;9.798;2022-07-10T04:58:30;5.73;;;4.30;;
2760;SDS011;15420;48.636;9.798;2022-07-10T05:00:59;5.87;;;3.90;;
2760;SDS011;15420;48.636;9.798;2022-07-10T05:03:25;4.50;;;3.70;;
2760;SDS011;15420;48.636;9.798;2022-07-10T05:05:52;5.53;;;4.00;;
2760;SDS011;15420;48.636;9.798;2022-07-10T05:08:18;4.50;;;3.70;;
2760;SDS011;15420;48.636;9.798;2022-07-10T05:10:47;4.40;;;4.00;;
2760;SDS011;15420;48.636;9.798;2022-07-10T05:13:16;4.20;;;3.67;;
2760;SDS011;15420;48.636;9.798;2022-07-10T05:15:44;4.53;;;4.10;;
2760;SDS011;15420;48.636;9.798;2022-07-10T05:18:12;3.50;;;3.30;;
2760;SDS011;15420;48.636;9.798;2022-07-10T05:20:38;4.00;;;3.70;;
2760;SDS011;15420;48.636;9.798;2022-07-10T05:23:07;4.43;;;4.03;;
2760;SDS011;15420;48.636;9.798;2022-07-10T05:25:37;5.07;;;3.80;;
2760;SDS011;15420;48.636;9.798;2022-07-10T05:28:03;3.80;;;3.50;;
2760;SDS011;15420;48.636;9.798;2022-07-10T05:30:32;6.30;;;4.00;;
2760;SDS011;15420;48.636;9.798;2022-07-10T05:33:01;4.20;;;3.83;;
2760;SDS011;15420;48.636;9.798;2022-07-10T05:35:30;4.10;;;3.80;;
2760;SDS011;15420;48.636;9.798;2022-07-10T05:37:58;4.10;;;3.80;;
2760;SDS011;15420;48.636;9.798;2022-07-10T05:40:28;6.13;;;3.60;;
2760;SDS011;15420;48.636;9.798;2022-07-10T05:42:59;3.90;;;3.60;;
2760;SDS011;15420;48.636;9.798;2022-07-10T05:45:25;6.63;;;3.50;;
2760;SDS011;15420;48.636;9.798;2022-07-10T05:47:53;4.90;;;3.50;;
2760;SDS011;15420;48.636;9.798;2022-07-10T05:50:20;3.87;;;3.27;;
2760;SDS011;15420;48.636;9.798;2022-07-10T05:52:51;4.67;;;3.70;;
2760;SDS011;15420;48.636;9.798;2022-07-10T05:55:17;4.70;;;3.43;;
2760;SDS011;15420;48.636;9.798;2022-07-10T05:57:43;3.27;;;3.07;;
2760;SDS011;15420;48.636;9.798;2022-07-10T06:00:12;3.93;;;3.30;;
2760;SDS011;15420;48.636;9.798;2022-07-10T06:02:38;4.93;;;3.43;;
2760;SDS011;15420;48.636;9.798;2022-07-10T06:05:08;3.50;;;3.20;;
2760;SDS011;15420;48.636;9.798;2022-07-10T06:07:34;4.37;;;3.27;;
2760;SDS011;15420;48.636;9.798;2022-07-10T06:10:01;3.13;;;2.93;;
2760;SDS011;15420;48.636;9.798;2022-07-10T06:12:31;3.10;;;2.80;;
2760;SDS011;15420;48.636;9.798;2022-07-10T06:14:57;4.37;;;3.50;;
2760;SDS011;15420;48.636;9.798;2022-07-10T06:17:24;2.57;;;2.37;;
2760;SDS011;15420;48.636;9.798;2022-07-10T06:19:50;3.30;;;3.00;;
2760;SDS011;15420;48.636;9.798;2022-07-10T06:22:16;3.90;;;3.40;;
2760;SDS011;15420;48.636;9.798;2022-07-10T06:24:59;3.17;;;2.80;;
2760;SDS011;15420;48.636;9.798;2022-07-10T06:27:26;2.87;;;2.67;;
2760;SDS011;15420;48.636;9.798;2022-07-10T06:29:53;2.60;;;2.40;;
2760;SDS011;15420;48.636;9.798;2022-07-10T06:32:21;5.03;;;2.33;;
2760;SDS011;15420;48.636;9.798;2022-07-10T06:34:49;3.63;;;2.73;;
2760;SDS011;15420;48.636;9.798;2022-07-10T06:37:18;2.77;;;2.57;;
2760;SDS011;15420;48.636;9.798;2022-07-10T06:39:45;3.90;;;2.40;;
2760;SDS011;15420;48.636;9.798;2022-07-10T06:42:14;2.33;;;2.13;;
2760;SDS011;15420;48.636;9.798;2022-07-10T06:44:41;3.53;;;2.03;;
2760;SDS011;15420;48.636;9.798;2022-07-10T06:47:08;6.33;;;2.00;;
2760;SDS011;15420;48.636;9.798;2022-07-10T06:49:54;3.47;;;2.20;;
2760;SDS011;15420;48.636;9.798;2022-07-10T06:52:20;2.63;;;2.30;;
2760;SDS011;15420;48.636;9.798;2022-07-10T06:54:49;2.33;;;2.13;;
2760;SDS011;15420;48.636;9.798;2022-07-10T06:57:16;1.93;;;1.80;;
2760;SDS011;15420;48.636;9.798;2022-07-10T06:59:46;2.30;;;1.80;;
2760;SDS011;15420;48.636;9.798;2022-07-10T07:02:13;2.70;;;1.87;;
2760;SDS011;15420;48.636;9.798;2022-07-10T07:04:39;4.20;;;1.73;;
2760;SDS011;15420;48.636;9.798;2022-07-10T07:07:05;1.90;;;1.80;;
2760;SDS011;15420;48.636;9.798;2022-07-10T07:09:31;3.10;;;2.00;;
2760;SDS011;15420;48.636;9.798;2022-07-10T07:11:59;4.00;;;1.70;;
2760;SDS011;15420;48.636;9.798;2022-07-10T07:14:28;2.73;;;1.93;;
2760;SDS011;15420;48.636;9.798;2022-07-10T07:16:57;2.50;;;2.30;;
2760;SDS011;15420;48.636;9.798;2022-07-10T07:19:31;4.57;;;2.27;;
2760;SDS011;15420;48.636;9.798;2022-07-10T07:22:21;1.50;;;1.40;;
2760;SDS011;15420;48.636;9.798;2022-07-10T07:25:07;2.17;;;1.70;;
2760;SDS011;15420;48.636;9.798;2022-07-10T07:27:37;2.00;;;1.80;;
2760;SDS011;15420;48.636;9.798;2022-07-10T07:30:08;1.70;;;1.60;;
2760;SDS011;15420;48.636;9.798;2022-07-10T07:32:36;2.83;;;1.90;;
2760;SDS011;15420;48.636;9.798;2022-07-10T07:35:04;1.73;;;1.63;;
2760;SDS011;15420;48.636;9.798;2022-07-10T07:37:50;4.60;;;2.33;;
2760;SDS011;15420;48.636;9.798;2022-07-10T07:40:18;4.10;;;1.83;;
2760;SDS011;15420;48.636;9.798;2022-07-10T07:42:47;1.80;;;1.70;;
2760;SDS011;15420;48.636;9.798;2022-07-10T07:45:20;3.37;;;2.30;;
2760;SDS011;15420;48.636;9.798;2022-07-10T07:50:23;6.03;;;1.90;;
2760;SDS011;15420;48.636;9.798;2022-07-10T07:52:51;2.23;;;2.03;;
2760;SDS011;15420;48.636;9.798;2022-07-10T07:55:21;1.77;;;1.67;;
2760;SDS011;15420;48.636;9.798;2022-07-10T07:57:48;4.20;;;2.10;;
2760;SDS011;15420;48.636;9.798;2022-07-10T08:00:23;2.90;;;2.20;;
2760;SDS011;15420;48.636;9.798;2022-07-10T08:02:55;2.40;;;1.70;;
2760;SDS011;15420;48.636;9.798;2022-07-10T08:05:23;1.70;;;1.60;;
2760;SDS011;15420;48.636;9.798;2022-07-10T08:07:52;1.50;;;1.40;;
2760;SDS011;15420;48.636;9.798;2022-07-10T08:10:24;6.10;;;2.07;;
2760;SDS011;15420;48.636;9.798;2022-07-10T08:12:52;1.40;;;1.30;;
2760;SDS011;15420;48.636;9.798;2022-07-10T08:15:19;1.80;;;1.27;;
2760;SDS011;15420;48.636;9.798;2022-07-10T08:17:49;3.83;;;2.00;;
2760;SDS011;15420;48.636;9.798;2022-07-10T08:20:20;2.10;;;1.77;;
2760;SDS011;15420;48.636;9.798;2022-07-10T08:22:46;2.40;;;1.57;;
2760;SDS011;15420;48.636;9.798;2022-07-10T08:25:13;2.83;;;2.00;;
2760;SDS011;15420;48.636;9.798;2022-07-10T08:27:40;1.80;;;1.50;;
2760;SDS011;15420;48.636;9.798;2022-07-10T08:30:09;2.60;;;1.60;;
2760;SDS011;15420;48.636;9.798;2022-07-10T08:32:36;1.70;;;1.10;;
2760;SDS011;15420;48.636;9.798;2022-07-10T08:35:05;2.23;;;1.70;;
2760;SDS011;15420;48.636;9.798;2022-07-10T08:40:06;2.40;;;1.87;;
2760;SDS011;15420;48.636;9.798;2022-07-10T08:42:34;2.00;;;1.70;;
2760;SDS011;15420;48.636;9.798;2022-07-10T08:45:00;4.47;;;1.90;;
2760;SDS011;15420;48.636;9.798;2022-07-10T08:47:26;2.27;;;1.87;;
2760;SDS011;15420;48.636;9.798;2022-07-10T08:49:56;5.60;;;2.03;;
2760;SDS011;15420;48.636;9.798;2022-07-10T08:54:56;2.10;;;2.00;;
2760;SDS011;15420;48.636;9.798;2022-07-10T08:57:23;2.50;;;2.27;;
2760;SDS011;15420;48.636;9.798;2022-07-10T08:59:51;2.20;;;1.60;;
2760;SDS011;15420;48.636;9.798;2022-07-10T09:02:21;2.47;;;2.03;;
2760;SDS011;15420;48.636;9.798;2022-07-10T09:04:50;1.83;;;1.50;;
2760;SDS011;15420;48.636;9.798;2022-07-10T09:07:18;3.93;;;2.07;;
2760;SDS011;15420;48.636;9.798;2022-07-10T09:12:20;2.50;;;1.30;;
2760;SDS011;15420;48.636;9.798;2022-07-10T09:14:49;3.43;;;1.70;;
2760;SDS011;15420;48.636;9.798;2022-07-10T09:17:19;1.90;;;1.70;;
2760;SDS011;15420;48.636;9.798;2022-07-10T09:19:45;2.07;;;1.70;;
2760;SDS011;15420;48.636;9.798;2022-07-10T09:22:16;2.47;;;1.90;;
2760;SDS011;15420;48.636;9.798;2022-07-10T09:24:45;4.20;;;1.80;;
2760;SDS011;15420;48.636;9.798;2022-07-10T09:27:14;2.20;;;1.87;;
2760;SDS011;15420;48.636;9.798;2022-07-10T09:29:47;1.73;;;1.60;;
2760;SDS011;15420;48.636;9.798;2022-07-10T09:32:21;2.10;;;1.90;;
2760;SDS011;15420;48.636;9.798;2022-07-10T09:34:48;3.13;;;1.70;;
2760;SDS011;15420;48.636;9.798;2022-07-10T09:37:38;2.23;;;2.03;;
2760;SDS011;15420;48.636;9.798;2022-07-10T09:40:08;2.53;;;1.90;;
2760;SDS011;15420;48.636;9.798;2022-07-10T09:52:58;4.07;;;2.03;;
2760;SDS011;15420;48.636;9.798;2022-07-10T09:55:26;2.60;;;1.90;;
2760;SDS011;15420;48.636;9.798;2022-07-10T09:57:57;3.73;;;1.97;;
2760;SDS011;15420;48.636;9.798;2022-07-10T10:00:29;4.93;;;1.87;;
2760;SDS011;15420;48.636;9.798;2022-07-10T10:03:06;2.47;;;1.80;;
2760;SDS011;15420;48.636;9.798;2022-07-10T10:05:53;1.83;;;1.60;;
2760;SDS011;15420;48.636;9.798;2022-07-10T10:10:51;1.80;;;1.70;;
2760;SDS011;15420;48.636;9.798;2022-07-10T10:15:48;1.77;;;1.50;;
2760;SDS011;15420;48.636;9.798;2022-07-10T10:18:19;3.23;;;1.73;;
2760;SDS011;15420;48.636;9.798;2022-07-10T10:20:47;7.23;;;3.03;;
2760;SDS011;15420;48.636;9.798;2022-07-10T10:23:15;2.60;;;2.00;;
2760;SDS011;15420;48.636;9.798;2022-07-10T10:25:46;1.73;;;1.63;;
2760;SDS011;15420;48.636;9.798;2022-07-10T10:28:17;3.30;;;1.90;;
2760;SDS011;15420;48.636;9.798;2022-07-10T10:30:48;1.80;;;1.70;;
2760;SDS011;15420;48.636;9.798;2022-07-10T10:36:13;1.77;;;1.67;;
2760;SDS011;15420;48.636;9.798;2022-07-10T10:39:14;1.73;;;1.60;;
2760;SDS011;15420;48.636;9.798;2022-07-10T10:41:53;2.97;;;1.60;;
2760;SDS011;15420;48.636;9.798;2022-07-10T10:44:23;1.70;;;1.60;;
2760;SDS011;15420;48.636;9.798;2022-07-10T10:52:18;1.70;;;1.47;;
2760;SDS011;15420;48.636;9.798;2022-07-10T10:57:21;1.53;;;1.43;;
2760;SDS011;15420;48.636;9.798;2022-07-10T11:00:29;1.80;;;1.70;;
2760;SDS011;15420;48.636;9.798;2022-07-10T11:03:15;3.10;;;1.70;;
2760;SDS011;15420;48.636;9.798;2022-07-10T11:05:46;3.80;;;2.17;;
2760;SDS011;15420;48.636;9.798;2022-07-10T11:08:14;5.67;;;2.57;;
2760;SDS011;15420;48.636;9.798;2022-07-10T11:11:01;2.40;;;1.60;;
2760;SDS011;15420;48.636;9.798;2022-07-10T11:13:47;2.03;;;1.40;;
2760;SDS011;15420;48.636;9.798;2022-07-10T11:16:16;1.97;;;1.10;;
2760;SDS011;15420;48.636;9.798;2022-07-10T11:18:45;2.47;;;1.20;;
2760;SDS011;15420;48.636;9.798;2022-07-10T11:21:20;1.70;;;1.60;;
2760;SDS011;15420;48.636;9.798;2022-07-10T11:24:08;1.67;;;1.57;;
2760;SDS011;15420;48.636;9.798;2022-07-10T11:26:49;2.13;;;1.83;;
2760;SDS011;15420;48.636;9.798;2022-07-10T11:29:35;1.27;;;1.20;;
2760;SDS011;15420;48.636;9.798;2022-07-10T11:32:02;1.43;;;1.10;;
2760;SDS011;15420;48.636;9.798;2022-07-10T11:34:35;1.33;;;1.23;;
2760;SDS011;15420;48.636;9.798;2022-07-10T11:37:13;1.30;;;1.20;;
2760;SDS011;15420;48.636;9.798;2022-07-10T11:39:40;1.93;;;1.47;;
2760;SDS011;15420;48.636;9.798;2022-07-10T11:42:06;1.33;;;1.23;;
2760;SDS011;15420;48.636;9.798;2022-07-10T11:44:33;1.60;;;1.13;;
2760;SDS011;15420;48.636;9.798;2022-07-10T11:46:59;3.00;;;1.70;;
2760;SDS011;15420;48.636;9.798;2022-07-10T11:49:27;1.40;;;1.20;;
2760;SDS011;15420;48.636;9.798;2022-07-10T11:51:53;3.70;;;1.37;;
2760;SDS011;15420;48.636;9.798;2022-07-10T11:54:27;4.43;;;1.50;;
2760;SDS011;15420;48.636;9.798;2022-07-10T11:56:54;1.77;;;1.20;;
2760;SDS011;15420;48.636;9.798;2022-07-10T11:59:29;1.97;;;1.10;;
2760;SDS011;15420;48.636;9.798;2022-07-10T12:01:56;1.00;;;0.90;;
2760;SDS011;15420;48.636;9.798;2022-07-10T12:04:22;1.10;;;1.00;;
2760;SDS011;15420;48.636;9.798;2022-07-10T12:06:53;1.50;;;1.00;;
2760;SDS011;15420;48.636;9.798;2022-07-10T12:09:22;1.20;;;1.10;;
2760;SDS011;15420;48.636;9.798;2022-07-10T12:12:02;1.20;;;1.10;;
2760;SDS011;15420;48.636;9.798;2022-07-10T12:14:33;1.00;;;0.90;;
2760;SDS011;15420;48.636;9.798;2022-07-10T12:17:00;0.90;;;0.87;;
2760;SDS011;15420;48.636;9.798;2022-07-10T12:19:30;2.03;;;1.00;;
2760;SDS011;15420;48.636;9.798;2022-07-10T12:22:01;2.97;;;2.40;;
2760;SDS011;15420;48.636;9.798;2022-07-10T12:24:30;2.20;;;1.73;;
2760;SDS011;15420;48.636;9.798;2022-07-10T12:27:00;1.40;;;1.10;;
2760;SDS011;15420;48.636;9.798;2022-07-10T12:29:29;1.93;;;1.40;;
2760;SDS011;15420;48.636;9.798;2022-07-10T12:31:57;1.30;;;0.90;;
2760;SDS011;15420;48.636;9.798;2022-07-10T12:34:33;4.40;;;0.90;;
2760;SDS011;15420;48.636;9.798;2022-07-10T12:37:05;1.70;;;0.80;;
2760;SDS011;15420;48.636;9.798;2022-07-10T12:39:37;1.87;;;1.00;;
2760;SDS011;15420;48.636;9.798;2022-07-10T12:42:10;1.57;;;1.17;;
2760;SDS011;15420;48.636;9.798;2022-07-10T12:44:51;1.73;;;0.90;;
2760;SDS011;15420;48.636;9.798;2022-07-10T12:47:20;1.97;;;0.83;;
2760;SDS011;15420;48.636;9.798;2022-07-10T12:49:50;2.30;;;1.00;;
2760;SDS011;15420;48.636;9.798;2022-07-10T12:54:48;1.23;;;1.13;;
2760;SDS011;15420;48.636;9.798;2022-07-10T12:57:29;1.63;;;0.90;;
2760;SDS011;15420;48.636;9.798;2022-07-10T13:00:01;1.40;;;1.30;;
2760;SDS011;15420;48.636;9.798;2022-07-10T13:02:30;1.20;;;1.10;;
2760;SDS011;15420;48.636;9.798;2022-07-10T13:04:57;1.50;;;1.10;;
2760;SDS011;15420;48.636;9.798;2022-07-10T13:07:33;1.50;;;0.83;;
2760;SDS011;15420;48.636;9.798;2022-07-10T13:10:09;1.53;;;0.83;;
2760;SDS011;15420;48.636;9.798;2022-07-10T13:12:35;0.80;;;0.80;;
2760;SDS011;15420;48.636;9.798;2022-07-10T13:15:04;1.00;;;0.90;;
2760;SDS011;15420;48.636;9.798;2022-07-10T13:17:33;2.10;;;1.07;;
2760;SDS011;15420;48.636;9.798;2022-07-10T13:20:07;1.70;;;1.00;;
2760;SDS011;15420;48.636;9.798;2022-07-10T13:22:34;2.43;;;0.80;;
2760;SDS011;15420;48.636;9.798;2022-07-10T13:25:00;1.07;;;0.97;;
2760;SDS011;15420;48.636;9.798;2022-07-10T13:27:27;1.10;;;1.00;;
2760;SDS011;15420;48.636;9.798;2022-07-10T13:29:53;1.00;;;0.70;;
2760;SDS011;15420;48.636;9.798;2022-07-10T13:32:20;1.70;;;0.93;;
2760;SDS011;15420;48.636;9.798;2022-07-10T13:34:46;1.40;;;0.90;;
2760;SDS011;15420;48.636;9.798;2022-07-10T13:37:12;1.57;;;0.93;;
2760;SDS011;15420;48.636;9.798;2022-07-10T13:39:39;1.90;;;1.10;;
2760;SDS011;15420;48.636;9.798;2022-07-10T13:42:08;2.50;;;1.00;;
2760;SDS011;15420;48.636;9.798;2022-07-10T13:44:34;2.33;;;0.73;;
2760;SDS011;15420;48.636;9.798;2022-07-10T13:47:00;0.87;;;0.70;;
2760;SDS011;15420;48.636;9.798;2022-07-10T13:49:26;1.13;;;0.80;;
2760;SDS011;15420;48.636;9.798;2022-07-10T13:51:52;1.33;;;0.80;;
2760;SDS011;15420;48.636;9.798;2022-07-10T13:54:21;2.33;;;1.57;;
2760;SDS011;15420;48.636;9.798;2022-07-10T13:56:47;1.37;;;0.97;;
2760;SDS011;15420;48.636;9.798;2022-07-10T13:59:15;0.70;;;0.70;;
2760;SDS011;15420;48.636;9.798;2022-07-10T14:01:41;1.63;;;0.80;;
2760;SDS011;15420;48.636;9.798;2022-07-10T14:04:08;0.80;;;0.80;;
2760;SDS011;15420;48.636;9.798;2022-07-10T14:06:34;1.30;;;0.70;;
2760;SDS011;15420;48.636;9.798;2022-07-10T14:09:00;1.20;;;0.88;;
2760;SDS011;15420;48.636;9.798;2022-07-10T14:11:26;0.88;;;0.70;;
2760;SDS011;15420;48.636;9.798;2022-07-10T14:13:53;1.00;;;0.77;;
2760;SDS011;15420;48.636;9.798;2022-07-10T14:16:20;1.60;;;0.75;;
2760;SDS011;15420;48.636;9.798;2022-07-10T14:18:46;1.02;;;0.90;;
2760;SDS011;15420;48.636;9.798;2022-07-10T14:21:12;1.65;;;0.80;;
2760;SDS011;15420;48.636;9.798;2022-07-10T14:23:41;0.60;;;0.60;;
2760;SDS011;15420;48.636;9.798;2022-07-10T14:26:09;1.25;;;1.00;;
2760;SDS011;15420;48.636;9.798;2022-07-10T14:28:36;0.82;;;0.60;;
2760;SDS011;15420;48.636;9.798;2022-07-10T14:31:03;1.90;;;0.80;;
2760;SDS011;15420;48.636;9.798;2022-07-10T14:33:32;1.85;;;0.60;;
2760;SDS011;15420;48.636;9.798;2022-07-10T14:36:00;1.50;;;0.70;;
2760;SDS011;15420;48.636;9.798;2022-07-10T14:38:29;0.60;;;0.60;;
2760;SDS011;15420;48.636;9.798;2022-07-10T14:40:56;1.60;;;0.60;;
2760;SDS011;15420;48.636;9.798;2022-07-10T14:43:23;1.08;;;1.08;;
2760;SDS011;15420;48.636;9.798;2022-07-10T14:45:53;2.13;;;0.80;;
2760;SDS011;15420;48.636;9.798;2022-07-10T14:48:20;1.08;;;0.70;;
2760;SDS011;15420;48.636;9.798;2022-07-10T14:50:46;0.65;;;0.60;;
2760;SDS011;15420;48.636;9.798;2022-07-10T14:53:14;2.55;;;0.82;;
2760;SDS011;15420;48.636;9.798;2022-07-10T14:55:41;0.85;;;0.68;;
2760;SDS011;15420;48.636;9.798;2022-07-10T14:58:09;0.55;;;0.55;;
2760;SDS011;15420;48.636;9.798;2022-07-10T15:00:37;0.95;;;0.70;;
2760;SDS011;15420;48.636;9.798;2022-07-10T15:03:06;1.30;;;0.60;;
2760;SDS011;15420;48.636;9.798;2022-07-10T15:05:32;0.90;;;0.77;;
2760;SDS011;15420;48.636;9.798;2022-07-10T15:08:05;0.90;;;0.60;;
2760;SDS011;15420;48.636;9.798;2022-07-10T15:10:31;1.00;;;0.60;;
2760;SDS011;15420;48.636;9.798;2022-07-10T15:13:00;0.60;;;0.60;;
2760;SDS011;15420;48.636;9.798;2022-07-10T15:15:32;0.82;;;0.60;;
2760;SDS011;15420;48.636;9.798;2022-07-10T15:17:59;1.05;;;0.60;;
2760;SDS011;15420;48.636;9.798;2022-07-10T15:20:25;3.47;;;1.38;;
2760;SDS011;15420;48.636;9.798;2022-07-10T15:22:53;1.10;;;0.80;;
2760;SDS011;15420;48.636;9.798;2022-07-10T15:25:20;0.90;;;0.60;;
2760;SDS011;15420;48.636;9.798;2022-07-10T15:27:46;2.60;;;1.00;;
2760;SDS011;15420;48.636;9.798;2022-07-10T15:30:14;2.05;;;0.70;;
2760;SDS011;15420;48.636;9.798;2022-07-10T15:32:41;2.03;;;0.80;;
2760;SDS011;15420;48.636;9.798;2022-07-10T15:35:10;2.08;;;0.95;;
2760;SDS011;15420;48.636;9.798;2022-07-10T15:37:39;1.52;;;0.80;;
2760;SDS011;15420;48.636;9.798;2022-07-10T15:40:08;1.25;;;0.70;;
2760;SDS011;15420;48.636;9.798;2022-07-10T15:42:37;1.90;;;1.10;;
2760;SDS011;15420;48.636;9.798;2022-07-10T15:45:03;1.73;;;0.70;;
2760;SDS011;15420;48.636;9.798;2022-07-10T15:47:30;1.60;;;1.30;;
2760;SDS011;15420;48.636;9.798;2022-07-10T15:49:56;1.87;;;1.00;;
2760;SDS011;15420;48.636;9.798;2022-07-10T15:52:22;1.52;;;1.00;;
2760;SDS011;15420;48.636;9.798;2022-07-10T15:54:49;1.70;;;0.90;;